Time;durP1;ratioP1;P1;durP2;ratioP2;P2;SDS_P1;SDS_P2;PMS_P1;PMS_P2;Temp;Humidity;BMP_temperature;BMP_pressure;BME280_temperature;BME280_humidity;BME280_pressure;Samples;Min_cycle;Max_cycle;Signal;HPM_P1;HPM_P2
2022/06/24 00:01:38;;;;;;;2.53;2.15;;;22.40;75.20;;;;;;5082947;28;20027;-65
2022/06/24 00:04:04;;;;;;;3.75;2.20;;;22.30;75.30;;;;;;5091552;28;20020;-65
2022/06/24 00:06:47;;;;;;;4.28;2.13;;;22.30;75.50;;;;;;5075710;28;20031;-65
2022/06/24 00:09:14;;;;;;;5.63;2.72;;;22.20;75.70;;;;;;5079237;28;20448;-64
2022/06/24 00:11:40;;;;;;;3.95;2.80;;;22.20;76.00;;;;;;5072069;28;20024;-64
2022/06/24 00:14:09;;;;;;;5.18;3.63;;;22.10;76.10;;;;;;5082838;28;20107;-65
2022/06/24 00:17:00;;;;;;;4.40;3.25;;;22.00;76.40;;;;;;5073283;28;20024;-66
2022/06/24 00:19:27;;;;;;;6.55;3.88;;;22.00;76.50;;;;;;5086291;28;20059;-65
2022/06/24 00:22:12;;;;;;;4.38;2.97;;;22.00;76.60;;;;;;5075933;28;20025;-65
2022/06/24 00:24:39;;;;;;;5.97;3.80;;;22.00;76.80;;;;;;5091269;28;20075;-66
2022/06/24 00:27:20;;;;;;;5.35;3.50;;;21.90;77.10;;;;;;5088132;28;20032;-65
2022/06/24 00:29:46;;;;;;;5.25;3.20;;;21.90;77.20;;;;;;5090492;28;20032;-67
2022/06/24 00:32:12;;;;;;;5.60;3.70;;;21.90;77.10;;;;;;5083101;28;20529;-67
2022/06/24 00:34:39;;;;;;;5.07;3.90;;;21.90;77.20;;;;;;5088338;28;20028;-66
2022/06/24 00:37:28;;;;;;;5.47;4.20;;;21.80;77.40;;;;;;5085726;28;20028;-66
2022/06/24 00:40:10;;;;;;;5.15;3.72;;;21.90;77.60;;;;;;5090485;28;20020;-66
2022/06/24 00:42:36;;;;;;;;;;;21.80;77.70;;;;;;5091424;28;20031;-66
2022/06/24 00:45:29;;;;;;;5.28;3.50;;;21.80;77.50;;;;;;5088559;28;19912;-66
2022/06/24 00:47:56;;;;;;;7.70;4.55;;;21.80;77.80;;;;;;5089497;28;20031;-66
2022/06/24 00:50:27;;;;;;;6.30;4.45;;;21.80;78.10;;;;;;5081115;28;20064;-66
2022/06/24 00:52:57;;;;;;;5.37;4.03;;;21.80;78.20;;;;;;5084929;28;20489;-65
2022/06/24 00:55:31;;;;;;;6.50;3.95;;;21.80;78.20;;;;;;5074339;28;20278;-65
2022/06/24 00:57:59;;;;;;;4.65;4.03;;;21.80;78.30;;;;;;5079573;28;20027;-65
2022/06/24 01:00:27;;;;;;;4.32;3.78;;;21.80;78.20;;;;;;5088694;28;20101;-65
2022/06/24 01:03:01;;;;;;;4.75;4.00;;;21.90;78.20;;;;;;5081020;28;20024;-65
2022/06/24 01:05:28;;;;;;;6.03;4.20;;;21.80;78.50;;;;;;5089142;28;20096;-65
2022/06/24 01:07:55;;;;;;;7.97;4.35;;;21.80;78.90;;;;;;5072970;28;20016;-65
2022/06/24 01:10:20;;;;;;;4.55;3.78;;;21.80;79.10;;;;;;5090178;28;20027;-65
2022/06/24 01:12:46;;;;;;;5.95;4.60;;;21.80;79.40;;;;;;5083854;28;20110;-66
2022/06/24 01:15:12;;;;;;;6.45;4.38;;;21.80;80.00;;;;;;5090304;28;20382;-65
2022/06/24 01:17:38;;;;;;;5.20;3.30;;;21.80;80.00;;;;;;5086450;28;20489;-66
2022/06/24 01:20:13;;;;;;;6.25;4.25;;;21.80;79.50;;;;;;5087477;28;20020;-65
2022/06/24 01:22:40;;;;;;;5.80;4.78;;;21.90;79.50;;;;;;5087344;28;20026;-65
2022/06/24 01:25:06;;;;;;;4.03;3.22;;;21.80;79.60;;;;;;5091056;28;20024;-66
2022/06/24 01:27:32;;;;;;;4.47;3.17;;;21.90;79.40;;;;;;5090088;28;20501;-66
2022/06/24 01:29:58;;;;;;;6.45;4.47;;;21.90;79.10;;;;;;5089636;28;20028;-66
2022/06/24 01:32:23;;;;;;;5.32;3.70;;;22.00;79.20;;;;;;5077805;28;20024;-66
2022/06/24 01:34:49;;;;;;;5.63;3.70;;;22.00;79.10;;;;;;5087392;28;20525;-66
2022/06/24 01:37:15;;;;;;;6.70;4.70;;;22.00;79.00;;;;;;5088095;28;20031;-65
2022/06/24 01:39:40;;;;;;;5.63;3.70;;;22.00;79.00;;;;;;5088775;28;20103;-66
2022/06/24 01:42:07;;;;;;;5.97;4.78;;;22.00;79.20;;;;;;5084810;28;20073;-67
2022/06/24 01:44:34;;;;;;;5.78;5.07;;;22.00;79.40;;;;;;5084201;28;20513;-67
2022/06/24 01:47:00;;;;;;;6.50;4.50;;;21.90;79.70;;;;;;5089168;28;20042;-67
2022/06/24 01:49:25;;;;;;;5.38;4.00;;;21.80;79.80;;;;;;5082279;28;20017;-67
2022/06/24 01:51:54;;;;;;;3.75;3.33;;;21.80;79.80;;;;;;5088403;28;20051;-67
2022/06/24 01:54:20;;;;;;;4.75;3.60;;;21.80;79.50;;;;;;5088928;28;20107;-67
2022/06/24 01:56:46;;;;;;;4.78;3.15;;;21.80;79.60;;;;;;5087103;28;20095;-66
2022/06/24 01:59:14;;;;;;;4.05;3.22;;;21.70;79.80;;;;;;5084572;28;20096;-66
2022/06/24 02:01:40;;;;;;;3.97;2.80;;;21.70;79.90;;;;;;5081786;28;20036;-66
2022/06/24 02:04:05;;;;;;;3.92;3.50;;;21.70;79.80;;;;;;5083840;28;20054;-66
2022/06/24 02:06:31;;;;;;;6.22;3.80;;;21.70;79.80;;;;;;5088716;28;20105;-66
2022/06/24 02:08:56;;;;;;;5.93;3.88;;;21.70;79.80;;;;;;5088756;28;20078;-66
2022/06/24 02:14:11;;;;;;;6.15;4.75;;;21.60;79.90;;;;;;5082116;28;20051;-66
2022/06/24 02:16:37;;;;;;;4.38;3.83;;;21.60;80.30;;;;;;5088362;28;20024;-65
2022/06/24 02:19:04;;;;;;;5.68;4.25;;;21.60;80.70;;;;;;5088565;28;20014;-65
2022/06/24 02:21:29;;;;;;;5.18;4.55;;;21.50;81.00;;;;;;5080374;28;20030;-66
2022/06/24 02:23:55;;;;;;;5.75;3.60;;;21.50;81.10;;;;;;5088358;28;20020;-66
2022/06/24 02:26:21;;;;;;;4.53;3.10;;;21.50;81.00;;;;;;5088407;28;20469;-65
2022/06/24 02:28:47;;;;;;;3.28;2.88;;;21.50;80.90;;;;;;5087289;28;20038;-65
2022/06/24 02:31:12;;;;;;;4.13;3.53;;;21.50;80.90;;;;;;5086641;28;20035;-66
2022/06/24 02:33:38;;;;;;;3.13;2.70;;;21.50;81.10;;;;;;5084861;28;20032;-66
2022/06/24 02:36:05;;;;;;;2.88;2.45;;;21.40;81.20;;;;;;5087384;28;20472;-66
2022/06/24 02:38:30;;;;;;;3.20;2.33;;;21.40;81.50;;;;;;5069230;28;20025;-66
2022/06/24 02:40:58;;;;;;;2.72;2.20;;;21.40;81.60;;;;;;5087473;28;20024;-66
2022/06/24 02:43:25;;;;;;;2.30;1.80;;;21.30;81.70;;;;;;5087656;28;20028;-66
2022/06/24 02:46:02;;;;;;;2.30;1.90;;;21.30;81.50;;;;;;5090597;28;20055;-66
2022/06/24 02:48:28;;;;;;;2.10;1.90;;;21.30;81.40;;;;;;5079144;28;20024;-66
2022/06/24 02:50:57;;;;;;;1.80;1.58;;;21.20;81.30;;;;;;5082784;28;20020;-66
2022/06/24 02:53:23;;;;;;;1.67;1.30;;;21.20;81.20;;;;;;5084876;28;20032;-64
2022/06/24 02:55:51;;;;;;;2.22;1.15;;;21.10;81.00;;;;;;5084313;28;20112;-66
2022/06/24 02:58:17;;;;;;;1.20;1.10;;;21.00;80.80;;;;;;5083434;28;20063;-65
2022/06/24 03:00:43;;;;;;;1.63;1.05;;;20.90;80.60;;;;;;5086155;28;20043;-66
2022/06/24 03:03:10;;;;;;;2.55;1.10;;;20.80;80.50;;;;;;5080985;28;20095;-65
2022/06/24 03:05:36;;;;;;;1.85;1.17;;;20.70;80.50;;;;;;5085450;28;20024;-67
2022/06/24 03:08:02;;;;;;;1.35;1.25;;;20.60;80.50;;;;;;5082767;28;20032;-66
2022/06/24 03:10:27;;;;;;;1.80;1.35;;;20.60;80.50;;;;;;5085522;28;20028;-66
2022/06/24 03:12:53;;;;;;;2.47;1.80;;;20.50;80.60;;;;;;5080764;28;20395;-66
2022/06/24 03:15:19;;;;;;;2.75;1.70;;;20.50;80.70;;;;;;5085548;28;20123;-65
2022/06/24 03:17:45;;;;;;;2.95;2.22;;;20.50;80.80;;;;;;5078882;28;20021;-66
2022/06/24 03:20:11;;;;;;;2.63;1.90;;;20.40;81.10;;;;;;5086493;28;20039;-66
2022/06/24 03:22:36;;;;;;;2.38;1.65;;;20.40;81.20;;;;;;5085106;28;20035;-66
2022/06/24 03:25:06;;;;;;;2.03;1.60;;;20.40;81.10;;;;;;5088618;28;20103;-66
2022/06/24 03:27:32;;;;;;;2.63;1.58;;;20.40;81.10;;;;;;5087480;28;20059;-65
2022/06/24 03:29:58;;;;;;;2.13;1.50;;;20.50;81.10;;;;;;5083321;28;20052;-66
2022/06/24 03:32:23;;;;;;;2.30;1.70;;;20.50;81.00;;;;;;5084750;28;20182;-66
2022/06/24 03:34:49;;;;;;;3.22;1.55;;;20.50;81.00;;;;;;5084373;28;20527;-65
2022/06/24 03:37:15;;;;;;;1.65;1.52;;;20.50;81.00;;;;;;5085773;28;20051;-65
2022/06/24 03:39:40;;;;;;;2.28;1.63;;;20.40;80.90;;;;;;5083658;28;20034;-66
2022/06/24 03:42:06;;;;;;;3.08;1.75;;;20.40;80.90;;;;;;5083067;28;20308;-67
2022/06/24 03:44:32;;;;;;;1.88;1.70;;;20.30;80.80;;;;;;5082849;28;20124;-66
2022/06/24 03:46:58;;;;;;;2.22;1.65;;;20.20;80.90;;;;;;5082120;28;20024;-66
2022/06/24 03:49:23;;;;;;;2.53;1.80;;;20.20;81.00;;;;;;5082036;28;20035;-66
2022/06/24 03:51:49;;;;;;;2.03;1.50;;;20.10;81.00;;;;;;5082933;28;20056;-66
2022/06/24 03:54:15;;;;;;;1.98;1.52;;;20.10;81.00;;;;;;5082602;28;20032;-66
2022/06/24 03:56:40;;;;;;;2.20;1.83;;;20.10;81.00;;;;;;5082194;28;20048;-65
2022/06/24 03:59:06;;;;;;;2.13;1.60;;;20.10;80.90;;;;;;5084350;28;20077;-65
2022/06/24 04:01:32;;;;;;;2.08;1.50;;;20.10;80.90;;;;;;5080664;28;20044;-66
2022/06/24 04:03:57;;;;;;;3.70;1.90;;;20.00;80.80;;;;;;5080047;28;20028;-65
2022/06/24 04:06:23;;;;;;;2.40;1.40;;;20.00;80.70;;;;;;5085788;28;20082;-66
2022/06/24 04:08:49;;;;;;;1.70;1.42;;;20.00;80.70;;;;;;5086226;28;20364;-65
2022/06/24 04:11:16;;;;;;;2.83;1.55;;;19.90;80.70;;;;;;5090280;28;20036;-66
2022/06/24 04:13:43;;;;;;;1.52;1.42;;;19.90;81.00;;;;;;5088907;28;20024;-66
2022/06/24 04:16:09;;;;;;;2.47;1.60;;;19.90;80.90;;;;;;5086938;28;20016;-66
2022/06/24 04:18:34;;;;;;;2.25;1.52;;;19.90;80.70;;;;;;5090334;28;20545;-67
2022/06/24 04:21:00;;;;;;;2.20;1.50;;;19.90;80.70;;;;;;5090058;28;20382;-67
2022/06/24 04:23:26;;;;;;;1.80;1.55;;;19.80;80.90;;;;;;5088567;28;20555;-66
2022/06/24 04:25:52;;;;;;;1.55;1.27;;;19.80;80.90;;;;;;5089942;28;20024;-66
2022/06/24 04:28:18;;;;;;;1.20;1.10;;;19.80;80.90;;;;;;5088434;28;20028;-67
2022/06/24 04:30:43;;;;;;;3.33;1.42;;;19.80;80.80;;;;;;5088720;28;20788;-67
2022/06/24 04:33:09;;;;;;;2.45;1.40;;;19.80;80.90;;;;;;5085938;28;20040;-67
2022/06/24 04:35:35;;;;;;;2.65;1.30;;;19.80;80.90;;;;;;5088949;28;20081;-68
2022/06/24 04:38:01;;;;;;;2.25;1.20;;;19.80;80.80;;;;;;5084342;28;20017;-67
2022/06/24 04:40:27;;;;;;;3.90;1.50;;;19.80;80.70;;;;;;5088132;28;20023;-67
2022/06/24 04:42:52;;;;;;;2.60;1.45;;;19.80;80.60;;;;;;5082069;28;20256;-66
2022/06/24 04:45:18;;;;;;;3.42;1.30;;;19.90;80.60;;;;;;5090266;28;20035;-66
2022/06/24 04:47:44;;;;;;;2.30;1.50;;;19.90;80.40;;;;;;5086151;28;20063;-66
2022/06/24 04:50:10;;;;;;;3.28;1.40;;;19.90;80.30;;;;;;5073656;28;20089;-66
2022/06/24 04:52:36;;;;;;;2.25;1.40;;;20.00;80.30;;;;;;5074574;28;20013;-66
2022/06/24 04:55:04;;;;;;;2.38;1.20;;;19.90;80.20;;;;;;5087587;28;20036;-66
2022/06/24 04:57:29;;;;;;;3.15;1.70;;;19.90;80.20;;;;;;5083487;28;20031;-66
2022/06/24 04:59:55;;;;;;;2.15;1.25;;;19.90;80.10;;;;;;5076561;28;20475;-66
2022/06/24 05:02:21;;;;;;;2.00;1.40;;;20.00;80.10;;;;;;5080186;28;20089;-68
2022/06/24 05:04:47;;;;;;;1.60;1.40;;;20.00;80.00;;;;;;5087669;28;20036;-66
2022/06/24 05:07:13;;;;;;;2.13;1.60;;;20.10;80.00;;;;;;5089051;28;20027;-67
2022/06/24 05:09:38;;;;;;;2.63;1.48;;;20.10;80.00;;;;;;5082526;28;20044;-66
2022/06/24 05:12:04;;;;;;;1.42;1.30;;;20.10;79.90;;;;;;5078483;28;20462;-66
2022/06/24 05:14:30;;;;;;;2.08;1.42;;;20.10;79.80;;;;;;5087550;28;20028;-66
2022/06/24 05:16:57;;;;;;;2.35;1.55;;;20.10;79.70;;;;;;5089703;28;20063;-68
2022/06/24 05:19:22;;;;;;;2.63;1.60;;;20.10;79.70;;;;;;5083923;28;20025;-67
2022/06/24 05:21:48;;;;;;;3.42;1.50;;;20.10;79.70;;;;;;5073995;28;20035;-67
2022/06/24 05:24:14;;;;;;;1.95;1.48;;;20.20;79.70;;;;;;5081682;28;20046;-67
2022/06/24 05:26:44;;;;;;;2.20;1.52;;;20.10;79.70;;;;;;5089413;28;20051;-66
2022/06/24 05:29:10;;;;;;;3.33;1.40;;;20.10;79.80;;;;;;5084712;28;20398;-67
2022/06/24 05:31:35;;;;;;;1.65;1.42;;;20.10;79.80;;;;;;5069447;28;20027;-68
2022/06/24 05:34:01;;;;;;;2.75;1.98;;;20.10;79.90;;;;;;5084679;28;20052;-67
2022/06/24 05:36:27;;;;;;;10.27;7.88;;;20.10;79.90;;;;;;5082503;28;20029;-67
2022/06/24 05:38:53;;;;;;;5.15;4.20;;;20.10;80.00;;;;;;5072722;28;20691;-67
2022/06/24 05:41:19;;;;;;;4.20;2.67;;;20.10;79.90;;;;;;5074064;28;20544;-67
2022/06/24 05:43:45;;;;;;;2.88;2.00;;;20.20;79.80;;;;;;5083010;28;20025;-67
2022/06/24 05:46:12;;;;;;;2.15;1.90;;;20.20;79.70;;;;;;5100209;28;20027;-67
2022/06/24 05:48:38;;;;;;;3.30;1.90;;;20.30;79.80;;;;;;5087385;28;20024;-66
2022/06/24 05:51:12;;;;;;;2.25;2.00;;;20.30;79.70;;;;;;5081134;28;20039;-67
2022/06/24 05:56:23;;;;;;;3.10;2.03;;;20.40;79.60;;;;;;5085352;28;20089;-67
2022/06/24 05:58:49;;;;;;;1.85;1.67;;;20.40;79.50;;;;;;5090317;28;20477;-66
2022/06/24 06:01:15;;;;;;;2.78;1.70;;;20.40;79.50;;;;;;5088416;28;20052;-66
2022/06/24 06:03:41;;;;;;;1.70;1.48;;;20.40;79.60;;;;;;5085019;28;20024;-65
2022/06/24 06:06:07;;;;;;;1.83;1.60;;;20.30;79.60;;;;;;5081455;28;20032;-65
2022/06/24 06:08:33;;;;;;;2.42;1.77;;;20.40;79.80;;;;;;5086974;28;20028;-65
2022/06/24 06:10:59;;;;;;;2.25;1.70;;;20.30;79.90;;;;;;5089713;28;20051;-65
2022/06/24 06:13:25;;;;;;;3.65;1.50;;;20.40;79.80;;;;;;5089944;28;20051;-67
2022/06/24 06:15:50;;;;;;;2.78;1.83;;;20.40;79.80;;;;;;5080157;28;20036;-66
2022/06/24 06:18:16;;;;;;;1.88;1.60;;;20.40;79.80;;;;;;5085058;28;20020;-66
2022/06/24 06:20:41;;;;;;;1.70;1.35;;;20.40;79.80;;;;;;5088621;28;20459;-66
2022/06/24 06:23:07;;;;;;;2.25;1.50;;;20.40;79.80;;;;;;5092854;28;20039;-66
2022/06/24 06:25:33;;;;;;;3.05;1.83;;;20.40;79.80;;;;;;5072546;28;20024;-66
2022/06/24 06:27:59;;;;;;;4.43;2.10;;;20.50;79.70;;;;;;5083422;28;20551;-66
2022/06/24 06:30:25;;;;;;;5.22;1.90;;;20.30;79.70;;;;;;5080084;28;20052;-67
2022/06/24 06:32:51;;;;;;;2.72;1.70;;;20.20;80.00;;;;;;5078547;28;20055;-67
2022/06/24 06:35:17;;;;;;;3.25;2.47;;;20.20;80.20;;;;;;5090274;28;20039;-67
2022/06/24 06:37:43;;;;;;;3.45;1.90;;;20.20;80.50;;;;;;5084356;28;20100;-67
2022/06/24 06:40:09;;;;;;;3.10;1.90;;;20.20;80.50;;;;;;5091262;28;20028;-67
2022/06/24 06:42:34;;;;;;;2.33;1.65;;;20.20;80.30;;;;;;5077801;28;20024;-67
2022/06/24 06:45:00;;;;;;;2.47;1.90;;;20.30;80.10;;;;;;5084805;28;20375;-66
2022/06/24 06:47:26;;;;;;;4.57;2.30;;;20.30;79.90;;;;;;5081564;28;20056;-66
2022/06/24 06:49:51;;;;;;;3.17;1.90;;;20.30;80.00;;;;;;5088372;28;20470;-66
2022/06/24 06:52:17;;;;;;;2.50;1.90;;;20.30;80.10;;;;;;5084332;28;20119;-67
2022/06/24 06:54:42;;;;;;;2.63;2.05;;;20.30;80.00;;;;;;5086543;28;20024;-66
2022/06/24 06:57:08;;;;;;;3.13;1.60;;;20.30;80.00;;;;;;5089350;28;20055;-66
2022/06/24 06:59:34;;;;;;;4.75;2.30;;;20.40;80.00;;;;;;5081922;28;20398;-67
2022/06/24 07:01:59;;;;;;;5.18;2.40;;;20.40;80.10;;;;;;5087674;28;20479;-66
2022/06/24 07:04:25;;;;;;;4.35;2.25;;;20.30;80.40;;;;;;5080992;28;20035;-66
2022/06/24 07:06:53;;;;;;;4.28;2.85;;;20.30;80.90;;;;;;5085760;28;20024;-66
2022/06/24 07:09:19;;;;;;;4.30;2.70;;;20.30;81.90;;;;;;5081926;28;20063;-66
2022/06/24 07:11:44;;;;;;;2.65;1.83;;;20.20;81.50;;;;;;5083171;28;20035;-66
2022/06/24 07:14:10;;;;;;;3.03;2.05;;;20.30;81.50;;;;;;5087633;28;20028;-67
2022/06/24 07:16:36;;;;;;;4.47;3.28;;;20.30;81.30;;;;;;5079351;28;20115;-66
2022/06/24 07:19:02;;;;;;;4.03;2.60;;;20.30;81.40;;;;;;5082276;28;20025;-67
2022/06/24 07:21:28;;;;;;;2.92;2.33;;;20.40;81.30;;;;;;5087944;28;20027;-67
2022/06/24 07:23:53;;;;;;;2.58;2.20;;;20.30;81.30;;;;;;5077596;28;20028;-67
2022/06/24 07:26:19;;;;;;;2.42;2.22;;;20.30;81.30;;;;;;5087488;28;20040;-66
2022/06/24 07:28:45;;;;;;;2.80;2.08;;;20.40;81.30;;;;;;5090980;28;20028;-66
2022/06/24 07:31:17;;;;;;;2.92;2.00;;;20.40;81.20;;;;;;5090762;28;20032;-66
2022/06/24 07:33:43;;;;;;;;;;;20.40;81.10;;;;;;5076952;28;20033;-67
2022/06/24 07:36:09;;;;;;;2.63;1.98;;;20.50;80.90;;;;;;5081899;28;20366;-66
2022/06/24 07:38:35;;;;;;;2.45;2.00;;;20.40;81.00;;;;;;5083500;28;20034;-67
2022/06/24 07:41:00;;;;;;;4.65;2.20;;;20.40;81.00;;;;;;5094967;28;20401;-65
2022/06/24 07:43:26;;;;;;;2.42;1.95;;;20.40;80.90;;;;;;5079964;28;20025;-67
2022/06/24 07:45:51;;;;;;;2.65;2.15;;;20.40;80.90;;;;;;5084974;28;20128;-67
2022/06/24 07:48:17;;;;;;;3.55;1.90;;;20.40;80.90;;;;;;5084878;28;20070;-67
2022/06/24 07:50:43;;;;;;;2.35;2.00;;;20.40;80.90;;;;;;5082160;28;20027;-66
2022/06/24 07:53:09;;;;;;;3.72;2.10;;;20.50;81.00;;;;;;5086187;28;20351;-67
2022/06/24 07:58:19;;;;;;;3.45;2.20;;;20.50;80.90;;;;;;5086106;28;20034;-66
2022/06/24 08:00:44;;;;;;;3.28;2.38;;;20.60;81.00;;;;;;5079102;28;20108;-66
2022/06/24 08:03:10;;;;;;;3.63;2.40;;;20.60;81.00;;;;;;5091280;28;20031;-67
2022/06/24 08:05:35;;;;;;;2.13;1.73;;;20.70;80.90;;;;;;5091196;28;20024;-67
2022/06/24 08:08:01;;;;;;;3.97;2.50;;;20.70;80.80;;;;;;5093510;28;20450;-67
2022/06/24 08:10:27;;;;;;;2.85;2.45;;;20.70;80.80;;;;;;5077454;28;21936;-66
2022/06/24 08:12:52;;;;;;;3.10;2.35;;;20.70;80.80;;;;;;5084190;28;20029;-66
2022/06/24 08:15:18;;;;;;;2.88;2.20;;;20.70;80.80;;;;;;5088162;28;20031;-65
2022/06/24 08:17:43;;;;;;;3.45;2.55;;;20.70;80.80;;;;;;5086481;28;20039;-66
2022/06/24 08:20:09;;;;;;;2.70;2.35;;;20.70;80.80;;;;;;5079749;28;20024;-66
2022/06/24 08:22:35;;;;;;;3.53;2.70;;;20.80;80.90;;;;;;5082496;28;20051;-67
2022/06/24 08:25:01;;;;;;;4.63;3.10;;;20.80;80.80;;;;;;5079681;28;20613;-65
2022/06/24 08:27:27;;;;;;;5.53;2.80;;;20.80;80.80;;;;;;5097883;28;20522;-66
2022/06/24 08:29:52;;;;;;;3.65;3.20;;;20.80;81.00;;;;;;5082309;28;20131;-66
2022/06/24 08:32:18;;;;;;;4.15;3.08;;;20.70;81.20;;;;;;5093871;28;20535;-66
2022/06/24 08:34:44;;;;;;;4.20;3.13;;;20.70;81.30;;;;;;5087512;28;20530;-66
2022/06/24 08:37:09;;;;;;;4.63;3.40;;;20.70;81.30;;;;;;5075868;28;20106;-66
2022/06/24 08:39:35;;;;;;;5.15;3.55;;;20.80;81.30;;;;;;5087902;28;20123;-66
2022/06/24 08:42:04;;;;;;;3.80;3.25;;;20.80;81.30;;;;;;5075532;28;20039;-65
2022/06/24 08:44:29;;;;;;;2.95;2.53;;;20.90;81.30;;;;;;5082127;28;20111;-66
2022/06/24 08:46:55;;;;;;;4.00;3.33;;;21.10;81.00;;;;;;5076393;28;20099;-66
2022/06/24 08:49:21;;;;;;;3.30;3.00;;;21.20;80.60;;;;;;5083220;28;20445;-66
2022/06/24 08:51:48;;;;;;;3.40;3.10;;;21.30;81.10;;;;;;5088320;28;20028;-66
2022/06/24 08:54:17;;;;;;;5.15;4.40;;;21.40;80.30;;;;;;5091488;28;20032;-66
2022/06/24 08:56:43;;;;;;;3.20;2.90;;;21.40;80.20;;;;;;5087116;28;20093;-66
2022/06/24 08:59:09;;;;;;;4.10;3.70;;;21.50;80.10;;;;;;5086872;28;20107;-66
2022/06/24 09:01:41;;;;;;;3.80;3.40;;;21.50;80.00;;;;;;5091045;28;20020;-66
2022/06/24 09:04:08;;;;;;;5.05;3.75;;;21.70;80.00;;;;;;5082196;28;20070;-66
2022/06/24 09:06:41;;;;;;;4.57;4.07;;;21.80;79.80;;;;;;5083851;28;20024;-66
2022/06/24 09:09:07;;;;;;;5.07;4.57;;;21.80;79.80;;;;;;5080365;28;20030;-67
2022/06/24 09:11:40;;;;;;;4.50;3.53;;;21.80;79.60;;;;;;5088140;28;20027;-66
2022/06/24 09:14:08;;;;;;;3.78;3.47;;;22.00;79.60;;;;;;5089105;28;20027;-66
2022/06/24 09:16:36;;;;;;;3.58;3.25;;;22.10;79.30;;;;;;5085588;28;20062;-67
2022/06/24 09:19:04;;;;;;;4.65;4.03;;;22.20;79.20;;;;;;5078090;28;20542;-66
2022/06/24 09:21:36;;;;;;;5.18;3.92;;;22.30;79.10;;;;;;5096463;28;20072;-66
2022/06/24 09:24:03;;;;;;;3.90;3.50;;;22.30;78.90;;;;;;5090799;28;20381;-66
2022/06/24 09:26:37;;;;;;;4.10;3.70;;;22.30;78.70;;;;;;5084484;28;20145;-66
2022/06/24 09:29:15;;;;;;;3.85;3.50;;;22.30;78.70;;;;;;5082035;28;20390;-66
2022/06/24 09:31:42;;;;;;;4.55;4.10;;;22.30;78.70;;;;;;5081691;28;20016;-66
2022/06/24 09:34:12;;;;;;;4.30;3.30;;;22.30;78.60;;;;;;5095720;28;20032;-66
2022/06/24 09:36:39;;;;;;;4.20;3.65;;;22.40;78.60;;;;;;5088678;28;20027;-66
2022/06/24 09:39:13;;;;;;;3.28;2.97;;;22.40;78.40;;;;;;5076821;28;20397;-66
2022/06/24 09:41:47;;;;;;;3.45;2.95;;;22.50;78.30;;;;;;5072501;28;20029;-67
2022/06/24 09:44:13;;;;;;;5.03;4.35;;;22.60;78.20;;;;;;5081224;28;20581;-67
2022/06/24 09:46:39;;;;;;;3.13;2.83;;;22.60;78.00;;;;;;5089287;28;20103;-66
2022/06/24 09:49:09;;;;;;;4.22;3.38;;;22.70;77.90;;;;;;5091208;28;20116;-67
2022/06/24 09:51:35;;;;;;;4.82;4.18;;;22.70;77.80;;;;;;5082634;28;20110;-69
2022/06/24 09:54:01;;;;;;;4.53;3.42;;;22.80;77.70;;;;;;5099945;28;20021;-67
2022/06/24 09:56:27;;;;;;;4.10;3.70;;;22.80;77.70;;;;;;5075956;28;20032;-67
2022/06/24 10:01:41;;;;;;;4.30;3.78;;;22.90;77.40;;;;;;5084134;28;20031;-66
2022/06/24 10:04:15;;;;;;;6.03;5.43;;;22.90;77.20;;;;;;5097295;28;20028;-67
2022/06/24 10:06:49;;;;;;;3.78;3.28;;;22.80;77.60;;;;;;5076786;28;20502;-67
2022/06/24 10:09:19;;;;;;;5.82;5.18;;;22.80;77.00;;;;;;5083489;28;20031;-67
2022/06/24 10:11:48;;;;;;;4.15;3.75;;;22.80;77.10;;;;;;5075632;28;20490;-66
2022/06/24 10:14:14;;;;;;;6.45;5.47;;;22.80;77.20;;;;;;5080959;28;20032;-67
2022/06/24 10:16:41;;;;;;;5.60;4.72;;;22.90;77.00;;;;;;5081861;28;20487;-66
2022/06/24 10:19:09;;;;;;;5.97;5.35;;;22.80;77.00;;;;;;5092415;28;20032;-66
2022/06/24 10:21:35;;;;;;;6.85;6.15;;;22.80;77.00;;;;;;5082841;28;20032;-66
2022/06/24 10:24:13;;;;;;;5.47;4.97;;;22.80;77.00;;;;;;5092527;27;20023;-66
2022/06/24 10:26:41;;;;;;;6.43;5.75;;;22.80;77.00;;;;;;5093589;28;20688;-67
2022/06/24 10:29:06;;;;;;;6.00;4.95;;;22.80;77.20;;;;;;5091301;28;20031;-66
2022/06/24 10:31:53;;;;;;;6.93;6.32;;;22.90;77.10;;;;;;5081101;28;20032;-66
2022/06/24 10:34:22;;;;;;;6.43;5.28;;;22.90;76.70;;;;;;5084583;28;20464;-67
2022/06/24 10:36:51;;;;;;;6.75;6.05;;;23.00;76.60;;;;;;5083215;28;20020;-65
2022/06/24 10:39:20;;;;;;;6.38;5.78;;;23.10;76.30;;;;;;5086706;28;20055;-66
2022/06/24 10:41:46;;;;;;;5.95;4.70;;;23.10;76.10;;;;;;5086121;28;20020;-66
2022/06/24 10:44:26;;;;;;;6.63;5.93;;;23.20;75.90;;;;;;5092632;28;20043;-66
2022/06/24 10:47:04;;;;;;;7.25;6.55;;;23.20;75.80;;;;;;5075496;28;20024;-66
2022/06/24 10:49:51;;;;;;;5.32;4.82;;;23.30;75.70;;;;;;5088612;28;20024;-66
2022/06/24 10:52:36;;;;;;;5.82;5.22;;;23.40;75.50;;;;;;5076623;28;20089;-66
2022/06/24 10:57:48;;;;;;;8.73;7.82;;;23.70;74.60;;;;;;5078152;28;20082;-66
2022/06/24 11:00:22;;;;;;;5.57;5.07;;;23.80;74.10;;;;;;5089065;28;20052;-66
2022/06/24 11:02:52;;;;;;;8.23;6.53;;;23.90;74.00;;;;;;5081211;28;20024;-66
2022/06/24 11:05:26;;;;;;;7.32;5.90;;;24.00;73.20;;;;;;5083483;28;20028;-66
2022/06/24 11:07:52;;;;;;;7.10;6.40;;;24.10;72.70;;;;;;5080689;28;20020;-66
2022/06/24 11:10:19;;;;;;;6.40;5.80;;;24.10;72.30;;;;;;5085732;28;20036;-66
2022/06/24 11:12:54;;;;;;;5.43;4.88;;;24.20;72.70;;;;;;5080813;28;20088;-66
2022/06/24 11:15:42;;;;;;;5.20;4.70;;;24.40;71.90;;;;;;5074368;28;20502;-68
2022/06/24 11:18:10;;;;;;;4.45;4.05;;;24.60;71.10;;;;;;5074882;28;20387;-66
2022/06/24 11:20:38;;;;;;;4.88;4.30;;;24.70;70.50;;;;;;5081678;28;20022;-66
2022/06/24 11:23:12;;;;;;;5.82;5.07;;;24.90;70.00;;;;;;5082980;28;20028;-67
2022/06/24 11:25:39;;;;;;;7.10;5.45;;;25.00;69.60;;;;;;5078172;28;20622;-66
2022/06/24 11:28:16;;;;;;;6.72;6.13;;;25.00;68.80;;;;;;5080264;28;20101;-67
2022/06/24 11:30:41;;;;;;;4.68;3.65;;;25.00;67.70;;;;;;5096676;28;20020;-67
2022/06/24 11:33:07;;;;;;;4.68;3.67;;;25.00;68.10;;;;;;5085740;28;20031;-67
2022/06/24 11:35:33;;;;;;;4.07;3.22;;;25.00;68.10;;;;;;5088579;28;20024;-67
2022/06/24 11:37:58;;;;;;;3.92;3.30;;;25.10;68.20;;;;;;5079185;28;20017;-67
2022/06/24 11:40:31;;;;;;;4.75;3.70;;;25.30;67.90;;;;;;5075482;28;20031;-66
2022/06/24 11:45:48;;;;;;;3.08;2.83;;;25.80;66.60;;;;;;5066073;28;20406;-66
2022/06/24 11:48:24;;;;;;;3.55;3.25;;;25.90;66.10;;;;;;5063339;28;20017;-66
2022/06/24 11:50:51;;;;;;;3.58;3.25;;;25.80;65.50;;;;;;5052019;28;20035;-66
2022/06/24 11:53:24;;;;;;;4.15;2.67;;;25.80;65.30;;;;;;5061309;28;20521;-67
2022/06/24 11:55:51;;;;;;;3.30;2.80;;;25.90;65.30;;;;;;5064644;28;20416;-66
2022/06/24 11:58:19;;;;;;;4.15;3.30;;;25.90;64.90;;;;;;5061850;28;20071;-66
2022/06/24 12:00:45;;;;;;;3.03;2.72;;;25.80;64.60;;;;;;5063906;28;20029;-67
2022/06/24 12:03:12;;;;;;;2.92;2.30;;;25.80;64.60;;;;;;5057514;28;20048;-66
2022/06/24 12:05:40;;;;;;;3.53;2.20;;;25.60;64.10;;;;;;5061053;28;20041;-67
2022/06/24 12:08:06;;;;;;;4.00;3.13;;;25.50;64.40;;;;;;5062721;28;20017;-67
2022/06/24 12:10:32;;;;;;;3.30;2.72;;;25.20;64.50;;;;;;5062546;28;20028;-67
2022/06/24 12:12:59;;;;;;;3.30;3.00;;;25.10;64.90;;;;;;5058359;28;20088;-67
2022/06/24 12:15:36;;;;;;;5.88;5.15;;;24.80;65.20;;;;;;5053923;28;20021;-67
2022/06/24 12:18:11;;;;;;;5.25;4.43;;;24.40;66.10;;;;;;5054758;28;20035;-67
2022/06/24 12:20:37;;;;;;;5.10;4.60;;;24.20;67.20;;;;;;5060203;28;20032;-67
2022/06/24 12:23:22;;;;;;;4.95;3.55;;;24.00;68.10;;;;;;5058708;28;20082;-67
2022/06/24 12:25:50;;;;;;;4.50;4.10;;;23.70;69.10;;;;;;5061727;28;20058;-66
2022/06/24 12:28:27;;;;;;;5.85;5.25;;;23.70;69.80;;;;;;5054070;28;20100;-66
2022/06/24 12:31:02;;;;;;;4.93;4.47;;;23.50;70.60;;;;;;5055541;28;20067;-65
2022/06/24 12:33:32;;;;;;;5.22;4.65;;;23.40;71.20;;;;;;5057302;28;20553;-66
2022/06/24 12:36:11;;;;;;;4.35;3.95;;;23.40;71.70;;;;;;5053826;28;20070;-65
2022/06/24 12:38:45;;;;;;;5.18;4.68;;;23.50;72.00;;;;;;5060019;28;20029;-67
2022/06/24 12:41:14;;;;;;;4.20;3.83;;;23.70;72.20;;;;;;5062534;28;20117;-66
2022/06/24 12:43:59;;;;;;;4.10;3.70;;;23.90;72.00;;;;;;5051259;28;20064;-67
2022/06/24 12:46:33;;;;;;;4.32;3.92;;;24.10;71.90;;;;;;5044268;28;20036;-67
2022/06/24 12:51:46;;;;;;;2.78;2.40;;;24.40;71.00;;;;;;5059305;28;20036;-65
2022/06/24 12:54:14;;;;;;;4.53;3.03;;;24.60;70.40;;;;;;5048904;28;20020;-65
2022/06/24 12:56:44;;;;;;;4.07;3.60;;;24.70;69.40;;;;;;5039868;28;20033;-67
2022/06/24 12:59:10;;;;;;;3.33;2.83;;;24.70;68.70;;;;;;5045600;28;20139;-66
2022/06/24 13:01:46;;;;;;;2.55;2.30;;;24.60;68.30;;;;;;5041416;28;20084;-66
2022/06/24 13:04:13;;;;;;;2.97;2.72;;;24.70;68.70;;;;;;5055457;28;20026;-66
2022/06/24 13:06:40;;;;;;;3.35;2.90;;;24.80;67.40;;;;;;5045304;28;20070;-67
2022/06/24 13:09:07;;;;;;;4.10;3.10;;;24.60;66.50;;;;;;5038690;28;20494;-67
2022/06/24 13:11:34;;;;;;;3.00;2.70;;;24.40;66.50;;;;;;5044387;28;20373;-66